Time;durP1;ratioP1;P1;durP2;ratioP2;P2;SDS_P1;SDS_P2;PMS_P1;PMS_P2;Temp;Humidity;BMP_temperature;BMP_pressure;BME280_temperature;BME280_humidity;BME280_pressure;Samples;Min_cycle;Max_cycle;Signal;HPM_P1;HPM_P2
2021/11/14 00:00:46;;;;;;;65.60;41.70;;;;;;;2.52;87.99;100853.77;1462329;90;21837;-95
2021/11/14 00:03:24;;;;;;;62.63;40.87;;;;;;;2.57;87.80;100868.72;1429495;88;21984;-95
2021/11/14 00:06:01;;;;;;;63.20;41.27;;;;;;;2.60;88.19;100849.42;1458586;89;21838;-96
2021/11/14 00:08:30;;;;;;;62.53;39.27;;;;;;;2.63;88.45;100850.55;1438104;89;22685;-95
2021/11/14 00:11:13;;;;;;;65.03;42.97;;;;;;;2.66;88.47;100852.99;1448120;89;21675;-94
2021/11/14 00:13:43;;;;;;;68.80;42.83;;;;;;;2.58;88.69;100859.95;1427219;89;22758;-95
2021/11/14 00:16:13;;;;;;;61.85;38.55;;;;;;;2.61;88.34;100849.32;1456407;89;21818;-95
2021/11/14 00:18:42;;;;;;;59.50;38.60;;;;;;;2.63;88.72;100839.63;1445519;89;21458;-95
2021/11/14 00:21:13;;;;;;;60.87;39.57;;;;;;;2.58;88.97;100846.87;1408465;89;21721;-94
2021/11/14 00:23:40;;;;;;;64.03;41.10;;;;;;;2.57;88.99;100839.98;1460315;89;21888;-95
2021/11/14 00:26:09;;;;;;;61.60;38.90;;;;;;;2.57;88.99;100839.98;1457493;89;21882;-93
2021/11/14 00:28:39;;;;;;;65.07;40.40;;;;;;;2.64;88.98;100845.22;1459282;89;21833;-94
2021/11/14 00:31:06;;;;;;;62.10;39.57;;;;;;;2.61;88.78;100862.39;1448240;89;22846;-93
2021/11/14 00:33:33;;;;;;;59.20;38.77;;;;;;;2.61;88.78;100862.39;1449355;89;21810;-94
2021/11/14 00:36:01;;;;;;;52.73;35.17;;;;;;;2.63;88.98;100844.02;1459036;89;21752;-93
2021/11/14 00:38:30;;;;;;;59.07;38.10;;;;;;;2.56;89.51;100861.83;1451940;89;22029;-93
2021/11/14 00:40:58;;;;;;;60.70;40.30;;;;;;;2.61;88.96;100856.32;1451830;89;21933;-94
2021/11/14 00:43:25;;;;;;;58.97;36.13;;;;;;;2.70;89.11;100854.49;1444377;89;21865;-93
2021/11/14 00:45:52;;;;;;;57.50;36.50;;;;;;;2.67;88.73;100867.27;1460008;89;21739;-93
2021/11/14 00:48:20;;;;;;;55.90;37.63;;;;;;;2.67;88.70;100846.36;1455650;89;21864;-92
2021/11/14 00:50:48;;;;;;;55.43;36.30;;;;;;;2.67;88.70;100846.36;1461738;89;22732;-92
2021/11/14 00:53:18;;;;;;;58.27;36.97;;;;;;;2.79;88.85;100843.54;1458050;89;22755;-91
2021/11/14 00:55:47;;;;;;;60.80;40.47;;;;;;;2.79;88.85;100843.54;1427249;90;22015;-93
2021/11/14 00:58:15;;;;;;;56.60;37.53;;;;;;;2.93;88.85;100847.95;1454032;89;21953;-93
2021/11/14 01:00:44;;;;;;;56.03;35.27;;;;;;;2.93;88.85;100847.95;1444170;90;22051;-94
2021/11/14 01:03:12;;;;;;;52.77;33.87;;;;;;;2.92;88.56;100831.90;1449430;90;23118;-94
2021/11/14 01:05:42;;;;;;;54.20;36.40;;;;;;;2.89;88.00;100842.53;1453216;90;21897;-94
2021/11/14 01:08:11;;;;;;;55.08;36.42;;;;;;;2.89;88.00;100842.53;1444144;89;22899;-94
2021/11/14 01:10:46;;;;;;;52.73;34.57;;;;;;;2.86;88.83;100846.63;1461927;89;21466;-95
2021/11/14 01:13:14;;;;;;;65.33;39.87;;;;;;;2.77;88.50;100851.92;1443294;89;22964;-94
2021/11/14 01:15:44;;;;;;;57.03;35.93;;;;;;;2.78;88.44;100849.67;1441528;89;22894;-94
2021/11/14 01:18:14;;;;;;;57.37;37.20;;;;;;;2.77;88.50;100851.09;1458359;89;21825;-95
2021/11/14 01:20:45;;;;;;;56.87;37.83;;;;;;;2.79;88.46;100844.84;1448184;89;21909;-95
2021/11/14 01:23:16;;;;;;;57.00;38.58;;;;;;;2.83;88.81;100852.04;1459982;89;22155;-94
2021/11/14 01:25:44;;;;;;;54.53;37.58;;;;;;;2.83;88.42;100848.12;1456634;89;21457;-94
2021/11/14 01:28:12;;;;;;;53.27;36.03;;;;;;;2.86;88.21;100855.78;1450083;89;21480;-94
2021/11/14 01:30:43;;;;;;;53.70;36.50;;;;;;;2.86;88.21;100855.78;1448520;89;21797;-94
2021/11/14 01:33:14;;;;;;;56.17;37.93;;;;;;;2.83;88.29;100854.66;1449862;89;21874;-94
2021/11/14 01:35:42;;;;;;;56.80;39.92;;;;;;;2.79;88.05;100843.98;1415069;90;22435;-95
2021/11/14 01:38:10;;;;;;;57.80;38.30;;;;;;;2.86;88.35;100855.31;1459369;89;21361;-95
2021/11/14 01:40:54;;;;;;;52.13;36.20;;;;;;;2.88;88.57;100854.77;1406947;92;22158;-94
2021/11/14 01:43:29;;;;;;;59.37;37.30;;;;;;;2.93;88.48;100849.26;1402414;93;21896;-94
2021/11/14 01:45:57;;;;;;;54.97;36.33;;;;;;;2.98;88.28;100839.38;1439162;90;22112;-94
2021/11/14 01:48:25;;;;;;;51.23;33.13;;;;;;;3.07;88.52;100850.61;1431171;90;22218;-93
2021/11/14 01:50:53;;;;;;;55.20;36.37;;;;;;;3.15;88.48;100845.78;1456326;90;21807;-93
2021/11/14 01:53:22;;;;;;;54.00;35.47;;;;;;;3.24;88.27;100842.25;1448557;89;22233;-93
2021/11/14 01:55:49;;;;;;;51.73;34.90;;;;;;;3.27;87.99;100835.06;1449047;89;22020;-92
2021/11/14 01:58:22;;;;;;;51.83;34.67;;;;;;;3.27;87.99;100835.06;1446573;89;21749;-94
2021/11/14 02:01:08;;;;;;;56.27;37.67;;;;;;;3.38;88.17;100842.45;1423594;92;22236;-93
2021/11/14 02:08:35;;;;;;;51.03;35.93;;;;;;;3.41;87.19;100846.02;1441478;87;22444;-94
2021/11/14 02:11:03;;;;;;;55.60;36.13;;;;;;;3.36;87.24;100837.59;1429936;91;22071;-94
2021/11/14 02:13:31;;;;;;;51.97;36.43;;;;;;;3.41;87.23;100834.72;1443937;91;22070;-95
2021/11/14 02:15:59;;;;;;;52.63;35.37;;;;;;;3.38;86.67;100843.59;1438548;91;22072;-95
2021/11/14 02:18:26;;;;;;;49.47;34.90;;;;;;;3.27;86.38;100849.92;1419635;91;22180;-94
2021/11/14 02:20:55;;;;;;;54.23;35.67;;;;;;;3.23;86.61;100844.50;1421994;91;22921;-96
2021/11/14 02:23:24;;;;;;;50.33;35.20;;;;;;;3.18;87.08;100851.77;1426053;91;22003;-95
2021/11/14 02:25:54;;;;;;;56.47;37.17;;;;;;;3.13;87.23;100855.95;1430169;91;22107;-95
2021/11/14 02:28:24;;;;;;;52.13;35.40;;;;;;;3.14;87.25;100852.42;1419736;91;22092;-95
2021/11/14 02:30:54;;;;;;;50.90;35.60;;;;;;;3.15;87.38;100857.55;1443679;91;23164;-94
2021/11/14 02:33:26;;;;;;;52.27;35.83;;;;;;;3.18;87.45;100853.08;1437234;90;22159;-94
2021/11/14 02:35:56;;;;;;;;;;;;;;;3.13;87.86;100859.88;1435898;91;21422;-95
2021/11/14 02:38:24;;;;;;;50.53;34.53;;;;;;;3.07;87.72;100860.23;1435308;91;20878;-94
2021/11/14 02:40:52;;;;;;;51.27;35.07;;;;;;;3.02;88.47;100873.59;1417382;91;21467;-93
2021/11/14 02:43:21;;;;;;;54.57;35.10;;;;;;;3.03;88.47;100875.27;1435682;91;22945;-94
2021/11/14 02:45:49;;;;;;;49.57;33.90;;;;;;;3.00;88.71;100872.00;1420334;91;22011;-92
2021/11/14 02:48:19;;;;;;;54.37;35.10;;;;;;;3.03;88.87;100877.88;1430591;91;23957;-93
2021/11/14 02:50:51;;;;;;;48.37;34.10;;;;;;;3.03;88.87;100877.88;1436782;91;21975;-93
2021/11/14 02:53:19;;;;;;;56.53;35.70;;;;;;;3.03;88.71;100870.63;1419478;91;22170;-92
2021/11/14 02:55:47;;;;;;;51.67;35.23;;;;;;;3.08;88.85;100870.63;1430916;91;22199;-92
2021/11/14 02:58:18;;;;;;;57.10;37.77;;;;;;;3.13;88.90;100865.94;1437753;91;24058;-94
2021/11/14 03:01:00;;;;;;;55.20;36.53;;;;;;;3.22;88.67;100854.58;1435651;91;22126;-93
2021/11/14 03:03:27;;;;;;;56.40;37.35;;;;;;;3.22;88.67;100854.58;1448234;91;23413;-93
2021/11/14 03:05:54;;;;;;;52.40;36.37;;;;;;;3.33;88.71;100854.31;1432652;91;22276;-92
2021/11/14 03:08:22;;;;;;;52.77;35.60;;;;;;;3.38;88.47;100857.98;1438080;91;23175;-91
2021/11/14 03:10:50;;;;;;;52.30;35.77;;;;;;;3.43;88.31;100852.02;1423365;91;22117;-91
2021/11/14 03:13:22;;;;;;;51.13;36.27;;;;;;;3.46;88.14;100850.52;1423442;91;22133;-91
2021/11/14 03:15:57;;;;;;;50.63;33.50;;;;;;;3.54;88.32;100845.67;1432297;90;22266;-91
2021/11/14 03:18:25;;;;;;;50.03;35.20;;;;;;;3.57;87.88;100848.10;1433466;91;22169;-92
2021/11/14 03:20:56;;;;;;;50.40;34.67;;;;;;;3.63;87.84;100852.60;1429422;91;22165;-92
2021/11/14 03:23:27;;;;;;;53.17;33.33;;;;;;;3.65;87.53;100845.00;1428408;91;22274;-91
2021/11/14 03:25:54;;;;;;;;;;;;;;;3.67;87.41;100842.30;1426391;91;21370;-92
2021/11/14 03:28:23;;;;;;;57.33;37.50;;;;;;;3.65;87.15;100850.71;1401442;91;20287;-92
2021/11/14 03:30:53;;;;;;;51.23;34.37;;;;;;;3.54;86.77;100854.83;1427861;91;22240;-92
2021/11/14 03:33:22;;;;;;;53.30;36.58;;;;;;;3.54;86.95;100848.29;1431079;91;22237;-92
2021/11/14 03:36:08;;;;;;;51.70;34.53;;;;;;;3.62;87.51;100849.11;1424157;91;22396;-92
2021/11/14 03:38:40;;;;;;;52.23;35.33;;;;;;;3.58;87.16;100858.10;1403982;87;22271;-95
2021/11/14 03:41:15;;;;;;;51.07;35.37;;;;;;;3.53;86.98;100854.91;1381731;90;22129;-96
2021/11/14 03:43:44;;;;;;;50.17;33.77;;;;;;;3.57;87.29;100849.41;1393836;93;22172;-95
2021/11/14 03:46:12;;;;;;;51.33;34.43;;;;;;;3.61;87.56;100848.28;1390583;93;22130;-95
2021/11/14 03:48:43;;;;;;;50.53;33.70;;;;;;;3.65;87.43;100846.31;1405216;91;22061;-94
2021/11/14 03:51:13;;;;;;;54.27;34.47;;;;;;;3.68;87.28;100845.28;1403770;94;22944;-95
2021/11/14 03:53:41;;;;;;;56.23;36.23;;;;;;;3.61;87.38;100845.66;1402844;94;21973;-95
2021/11/14 03:56:10;;;;;;;52.53;35.53;;;;;;;3.58;87.27;100841.92;1396601;93;22212;-95
2021/11/14 03:58:38;;;;;;;49.47;34.47;;;;;;;3.57;87.34;100849.88;1403887;94;21990;-95
2021/11/14 04:01:10;;;;;;;53.77;36.17;;;;;;;3.58;87.42;100844.54;1408269;93;22942;-96
2021/11/14 04:03:38;;;;;;;53.43;36.73;;;;;;;3.54;87.65;100846.11;1389471;94;21952;-96
2021/11/14 04:06:07;;;;;;;52.20;36.23;;;;;;;3.57;87.49;100844.17;1397089;93;23098;-95
2021/11/14 04:08:35;;;;;;;50.53;35.00;;;;;;;3.61;87.88;100849.59;1392427;94;21996;-95
2021/11/14 04:11:03;;;;;;;47.80;33.63;;;;;;;3.64;87.50;100843.80;1396191;93;23047;-95
2021/11/14 04:13:34;;;;;;;56.03;34.90;;;;;;;3.62;87.88;100841.27;1414282;94;22840;-94
2021/11/14 04:16:07;;;;;;;55.75;36.50;;;;;;;3.56;87.84;100852.11;1390441;93;23017;-95
2021/11/14 04:18:37;;;;;;;49.27;34.77;;;;;;;3.53;87.97;100849.67;1365988;94;21361;-94
2021/11/14 04:21:06;;;;;;;55.67;36.30;;;;;;;3.56;88.02;100845.09;1388032;93;22078;-94
2021/11/14 04:23:35;;;;;;;56.10;36.80;;;;;;;3.58;88.13;100847.16;1387053;93;22055;-95
2021/11/14 04:26:03;;;;;;;54.90;36.90;;;;;;;3.63;88.14;100842.97;1403719;93;22131;-95
2021/11/14 04:28:30;;;;;;;55.13;37.07;;;;;;;3.66;88.07;100847.18;1396547;93;22130;-95
2021/11/14 04:30:59;;;;;;;49.33;33.17;;;;;;;3.63;88.11;100843.44;1382570;93;22160;-95
2021/11/14 04:33:26;;;;;;;54.70;36.20;;;;;;;3.65;88.22;100840.23;1408348;93;21339;-96
2021/11/14 04:35:55;;;;;;;55.00;35.40;;;;;;;3.56;88.21;100847.70;1402938;93;22116;-94
2021/11/14 04:38:22;;;;;;;51.50;35.70;;;;;;;3.58;87.96;100849.77;1396201;93;22101;-94
2021/11/14 04:40:50;;;;;;;50.93;35.80;;;;;;;3.56;88.38;100851.63;1393569;93;22530;-93
2021/11/14 04:43:20;;;;;;;52.33;34.70;;;;;;;3.56;88.08;100847.70;1388509;93;22169;-94
2021/11/14 04:45:50;;;;;;;52.98;36.70;;;;;;;3.62;88.30;100845.19;1401189;93;22029;-95
2021/11/14 04:48:20;;;;;;;49.00;33.00;;;;;;;3.67;88.28;100852.77;1407926;93;21385;-95
2021/11/14 04:50:48;;;;;;;55.50;37.43;;;;;;;3.64;88.16;100860.34;1411672;93;23223;-95
2021/11/14 04:53:16;;;;;;;54.43;34.37;;;;;;;3.64;88.03;100860.81;1397374;93;22088;-95
2021/11/14 04:55:43;;;;;;;51.13;35.77;;;;;;;3.66;88.18;100868.95;1403817;93;22095;-94
2021/11/14 04:58:13;;;;;;;51.90;36.13;;;;;;;3.65;87.98;100866.41;1404578;93;22043;-93
2021/11/14 05:00:49;;;;;;;56.67;38.30;;;;;;;3.71;88.20;100873.89;1393758;93;22284;-95
2021/11/14 05:03:16;;;;;;;53.20;35.60;;;;;;;3.71;88.20;100873.89;1390641;94;21593;-95
2021/11/14 05:05:44;;;;;;;56.47;37.97;;;;;;;3.73;88.04;100873.34;1423227;91;22239;-95
2021/11/14 05:08:12;;;;;;;52.70;36.20;;;;;;;3.75;88.09;100869.70;1414861;92;22267;-95
2021/11/14 05:10:40;;;;;;;54.63;37.67;;;;;;;3.80;88.12;100865.03;1406824;92;22139;-95
2021/11/14 05:13:07;;;;;;;63.70;42.60;;;;;;;3.86;88.14;100865.13;1424414;91;22176;-94
2021/11/14 05:15:35;;;;;;;64.90;41.70;;;;;;;3.86;88.14;100865.13;1437146;92;21482;-95
2021/11/14 05:18:04;;;;;;;64.53;40.20;;;;;;;3.87;87.85;100864.19;1423946;91;23025;-94
2021/11/14 05:20:31;;;;;;;57.77;40.40;;;;;;;3.87;87.75;100865.49;1419080;92;22037;-95
2021/11/14 05:22:58;;;;;;;56.50;39.53;;;;;;;3.82;87.62;100858.38;1416924;92;22309;-94
2021/11/14 05:25:25;;;;;;;55.00;38.33;;;;;;;3.83;87.58;100870.08;1412312;93;22077;-94
2021/11/14 05:27:53;;;;;;;57.17;38.43;;;;;;;3.79;87.54;100869.88;1398500;93;22184;-94
2021/11/14 05:30:20;;;;;;;64.83;43.37;;;;;;;3.79;87.73;100871.19;1409769;93;22062;-95
2021/11/14 05:32:47;;;;;;;62.80;43.80;;;;;;;3.78;87.67;100870.83;1398530;91;22112;-94
2021/11/14 05:35:15;;;;;;;61.87;43.67;;;;;;;3.76;87.69;100870.54;1402443;92;22101;-93
2021/11/14 05:37:42;;;;;;;58.97;40.03;;;;;;;3.82;87.80;100874.92;1408738;91;22065;-95
2021/11/14 05:40:11;;;;;;;60.50;41.20;;;;;;;3.91;87.80;100882.69;1414252;93;22383;-94
2021/11/14 05:42:38;;;;;;;56.27;39.17;;;;;;;3.91;87.80;100882.69;1418102;91;21407;-94
2021/11/14 05:45:08;;;;;;;55.30;38.13;;;;;;;3.95;87.97;100888.13;1433349;91;22183;-94
2021/11/14 05:47:35;;;;;;;56.53;37.57;;;;;;;3.91;87.46;100888.03;1420968;91;21333;-94
2021/11/14 05:50:07;;;;;;;53.43;39.23;;;;;;;3.90;87.44;100888.03;1431722;91;22375;-94
2021/11/14 05:52:34;;;;;;;;;;;;;;;3.93;87.60;100887.38;1434396;91;22087;-95
2021/11/14 05:55:04;;;;;;;53.20;37.73;;;;;;;3.88;87.63;100894.66;1430263;91;20310;-93
2021/11/14 05:57:39;;;;;;;56.30;38.60;;;;;;;3.85;87.85;100905.32;1431938;91;21369;-93
2021/11/14 06:00:08;;;;;;;57.80;37.30;;;;;;;3.89;87.69;100910.77;1450207;90;21429;-94
2021/11/14 06:02:43;;;;;;;53.17;37.43;;;;;;;3.89;87.77;100906.84;1447604;88;21400;-94
2021/11/14 06:07:35;;;;;;;60.00;39.87;;;;;;;4.01;87.98;100917.88;1428306;88;22064;-93
2021/11/14 06:10:04;;;;;;;57.57;40.20;;;;;;;4.02;87.92;100915.61;1430808;91;21445;-94
2021/11/14 06:12:34;;;;;;;51.13;36.80;;;;;;;3.99;87.34;100918.42;1416022;91;21370;-95
2021/11/14 06:15:03;;;;;;;57.05;41.15;;;;;;;3.99;87.34;100918.42;1434604;91;21378;-95
2021/11/14 06:17:30;;;;;;;54.83;39.40;;;;;;;4.06;87.58;100926.77;1433033;91;21392;-94
2021/11/14 06:19:58;;;;;;;63.97;40.47;;;;;;;4.14;87.73;100930.21;1403093;91;21399;-95
2021/11/14 06:22:25;;;;;;;57.73;39.10;;;;;;;4.18;87.68;100927.32;1441342;91;22782;-96
2021/11/14 06:24:52;;;;;;;54.43;38.90;;;;;;;4.22;87.61;100927.50;1438414;90;21678;-95
2021/11/14 06:27:19;;;;;;;62.70;39.53;;;;;;;4.27;87.31;100935.92;1417544;91;22255;-95
2021/11/14 06:29:47;;;;;;;60.80;40.33;;;;;;;4.27;87.31;100935.92;1409583;88;21473;-92
2021/11/14 06:32:14;;;;;;;55.40;38.50;;;;;;;4.26;86.93;100941.27;1447751;88;22369;-96
2021/11/14 06:34:45;;;;;;;60.47;39.03;;;;;;;4.27;86.89;100936.39;1429557;87;21660;31
2021/11/14 06:37:14;;;;;;;55.63;38.47;;;;;;;4.26;86.90;100947.82;1387040;88;21861;31
2021/11/14 06:39:41;;;;;;;54.23;38.60;;;;;;;4.26;86.67;100945.20;1415011;91;21766;-96
2021/11/14 06:42:08;;;;;;;58.33;39.73;;;;;;;4.34;86.96;100946.86;1413607;91;21319;-94
2021/11/14 06:44:36;;;;;;;61.03;40.47;;;;;;;4.40;86.98;100943.88;1409326;91;21579;-95
2021/11/14 06:47:03;;;;;;;57.23;39.43;;;;;;;4.46;86.92;100947.42;1416493;91;21444;-94
2021/11/14 06:49:30;;;;;;;59.10;38.30;;;;;;;4.53;86.83;100946.09;1426515;91;21304;-94
2021/11/14 06:51:58;;;;;;;52.47;36.50;;;;;;;4.48;85.79;100950.77;1404546;91;22266;-94
2021/11/14 06:54:25;;;;;;;60.57;39.97;;;;;;;4.47;85.88;100942.55;1407660;91;21304;-93
2021/11/14 06:56:52;;;;;;;57.00;40.37;;;;;;;4.56;86.31;100949.47;1426983;90;21459;-93
2021/11/14 06:59:22;;;;;;;54.03;38.90;;;;;;;4.60;86.38;100940.45;1426849;90;21408;-95
2021/11/14 07:01:49;;;;;;;58.03;39.87;;;;;;;4.64;86.40;100941.97;1425241;91;21363;-95
2021/11/14 07:04:17;;;;;;;58.20;39.37;;;;;;;4.60;85.57;100946.53;1417615;91;21491;-94
2021/11/14 07:06:46;;;;;;;55.43;39.50;;;;;;;4.51;85.62;100949.74;1420348;91;21444;-94
2021/11/14 07:09:14;;;;;;;55.60;38.03;;;;;;;4.52;85.73;100956.22;1413253;90;22288;-94
2021/11/14 07:11:42;;;;;;;58.03;41.73;;;;;;;4.55;86.26;100955.66;1419739;90;22330;-95
2021/11/14 07:14:09;;;;;;;186.57;99.17;;;;;;;4.51;86.31;100951.89;1406863;91;21392;-95
2021/11/14 07:16:36;;;;;;;126.13;72.17;;;;;;;4.56;86.31;100955.55;1421530;91;21540;-95
2021/11/14 07:19:04;;;;;;;66.87;42.93;;;;;;;4.56;86.21;100963.41;1413721;91;21312;-95
2021/11/14 07:21:31;;;;;;;56.47;40.57;;;;;;;4.57;86.08;100957.70;1433067;91;21463;-95
2021/11/14 07:23:59;;;;;;;186.57;115.50;;;;;;;4.60;86.28;100960.13;1413239;91;21451;-95
2021/11/14 07:26:27;;;;;;;70.33;48.70;;;;;;;4.66;86.49;100957.98;1414274;91;21392;-93
2021/11/14 07:28:54;;;;;;;52.77;37.60;;;;;;;4.71;86.35;100960.30;1427911;91;21614;-93
2021/11/14 07:31:22;;;;;;;53.33;38.27;;;;;;;4.70;86.05;100966.01;1411139;91;21452;-96
2021/11/14 07:33:49;;;;;;;63.27;43.57;;;;;;;4.65;85.75;100969.86;1419290;91;22413;-96
2021/11/14 07:36:17;;;;;;;86.50;58.07;;;;;;;4.65;85.74;100973.31;1419697;91;22574;-95
2021/11/14 07:38:44;;;;;;;63.13;41.47;;;;;;;4.68;85.92;100974.44;1431691;89;21539;-93
2021/11/14 07:41:12;;;;;;;56.70;40.70;;;;;;;4.69;85.77;100972.65;1453058;89;21354;-94
2021/11/14 07:43:39;;;;;;;57.40;39.43;;;;;;;4.66;85.56;100974.16;1451145;90;22314;-96
2021/11/14 07:46:09;;;;;;;64.17;44.93;;;;;;;4.61;85.96;100973.63;1451872;89;21428;-95
2021/11/14 07:48:36;;;;;;;58.93;41.03;;;;;;;4.64;85.98;100968.19;1439547;89;21375;-96
2021/11/14 07:51:04;;;;;;;58.47;41.83;;;;;;;4.65;86.06;100973.31;1423765;89;21427;-95
2021/11/14 07:53:32;;;;;;;83.80;54.50;;;;;;;4.63;85.94;100961.23;1441712;90;22403;-95
2021/11/14 07:56:00;;;;;;;153.93;92.17;;;;;;;4.74;86.33;100960.09;1439212;88;21656;-95
2021/11/14 07:58:27;;;;;;;172.23;96.10;;;;;;;4.84;86.58;100966.45;1450184;88;21419;-94
2021/11/14 08:00:54;;;;;;;78.80;52.87;;;;;;;4.91;86.35;100965.11;1457877;88;21372;-94
2021/11/14 08:03:23;;;;;;;70.27;49.07;;;;;;;4.91;86.07;100974.29;1464373;88;21298;-94
2021/11/14 08:05:50;;;;;;;68.17;45.60;;;;;;;4.97;86.01;100972.58;1446550;90;21458;-95
2021/11/14 08:08:18;;;;;;;81.70;50.83;;;;;;;5.04;86.07;100975.67;1458274;88;22437;-93
2021/11/14 08:10:45;;;;;;;112.97;60.93;;;;;;;5.12;85.88;100971.23;1446016;90;21508;-93
2021/11/14 08:13:12;;;;;;;67.17;47.60;;;;;;;5.20;85.88;100972.41;1431289;90;21420;-93
2021/11/14 08:15:40;;;;;;;62.03;42.70;;;;;;;5.25;85.54;100964.73;1442623;91;21309;-95
2021/11/14 08:18:07;;;;;;;62.63;43.57;;;;;;;5.26;85.31;100963.30;1438695;91;21398;-94
2021/11/14 08:20:36;;;;;;;78.97;54.17;;;;;;;5.30;85.14;100967.42;1444791;91;21331;-94
2021/11/14 08:23:07;;;;;;;289.40;189.03;;;;;;;5.28;84.69;100974.55;1446658;91;21524;-94
2021/11/14 08:25:36;;;;;;;325.30;175.15;;;;;;;5.27;84.61;100975.50;1427102;90;22286;-95
2021/11/14 08:28:04;;;;;;;149.93;86.67;;;;;;;5.33;84.84;100981.66;1449844;88;22414;-93
2021/11/14 08:30:31;;;;;;;132.57;70.83;;;;;;;5.39;84.81;100981.25;1473683;88;21483;-95
2021/11/14 08:32:58;;;;;;;169.37;83.63;;;;;;;5.45;84.65;100978.69;1458124;88;21739;-94
2021/11/14 08:35:25;;;;;;;124.80;68.43;;;;;;;5.50;84.51;100985.80;1452435;89;21398;-95
2021/11/14 08:37:57;;;;;;;361.07;162.83;;;;;;;5.59;84.74;100985.66;1463829;89;21338;-95
2021/11/14 08:40:28;;;;;;;296.03;136.07;;;;;;;5.65;84.38;100981.31;1470955;89;21295;-93
2021/11/14 08:42:56;;;;;;;;;;;;;;;5.70;84.11;100978.36;1452410;89;21339;-92
2021/11/14 08:45:29;;;;;;;180.93;91.47;;;;;;;5.74;83.29;100983.31;1458245;89;20860;-92
2021/11/14 08:47:57;;;;;;;244.23;113.13;;;;;;;5.76;83.53;100982.75;1455934;89;21398;-92
2021/11/14 08:50:27;;;;;;;284.97;140.13;;;;;;;5.82;83.45;100992.84;1458343;89;21320;-93
2021/11/14 08:52:55;;;;;;;324.13;160.20;;;;;;;5.84;83.09;100994.91;1457549;89;21340;-93
2021/11/14 08:55:26;;;;;;;151.47;92.33;;;;;;;5.94;83.42;100993.00;1474043;89;21339;-94
2021/11/14 08:57:56;;;;;;;195.18;112.47;;;;;;;5.97;83.01;100992.78;1444322;89;22322;-93
2021/11/14 09:00:28;;;;;;;199.62;114.90;;;;;;;5.97;82.25;100995.41;1450956;89;21368;-93
2021/11/14 09:02:58;;;;;;;114.63;74.53;;;;;;;6.02;82.74;100993.32;1460219;89;21399;-94
2021/11/14 09:05:28;;;;;;;82.03;56.77;;;;;;;6.16;83.26;100986.65;1461006;89;23364;-94
2021/11/14 09:08:00;;;;;;;162.35;99.70;;;;;;;6.30;83.00;100985.22;1456156;89;21317;-93
2021/11/14 09:10:28;;;;;;;317.87;207.83;;;;;;;6.30;81.74;100994.42;1456233;89;21354;-93
2021/11/14 09:12:56;;;;;;;160.60;105.43;;;;;;;6.30;81.13;100988.30;1471839;89;21287;-95
2021/11/14 09:15:26;;;;;;;198.83;121.97;;;;;;;6.41;81.77;100987.56;1458566;89;21338;-96
2021/11/14 09:17:54;;;;;;;259.90;158.55;;;;;;;6.28;79.89;100983.64;1455594;89;21339;-95
2021/11/14 09:20:21;;;;;;;442.17;247.00;;;;;;;6.40;81.32;100982.78;1446761;89;21509;-95
2021/11/14 09:22:49;;;;;;;125.40;77.20;;;;;;;6.52;80.84;100978.45;1464148;89;21460;-95
2021/11/14 09:25:17;;;;;;;211.10;119.10;;;;;;;6.64;81.56;100969.69;1442926;89;21347;-95
2021/11/14 09:27:44;;;;;;;112.13;71.93;;;;;;;6.69;80.90;100979.41;1452574;89;21375;-95
2021/11/14 09:30:12;;;;;;;97.97;59.70;;;;;;;6.84;81.21;100980.58;1443622;89;21421;-94
2021/11/14 09:32:40;;;;;;;256.77;141.83;;;;;;;6.90;79.54;100980.97;1430916;89;21428;-94
2021/11/14 09:35:11;;;;;;;147.63;82.67;;;;;;;6.97;80.26;100981.39;1462543;89;21398;-95
2021/11/14 09:37:39;;;;;;;143.68;84.60;;;;;;;7.00;78.77;100975.91;1443181;89;21280;-95
2021/11/14 09:40:09;;;;;;;189.50;106.63;;;;;;;7.05;79.44;100981.69;1457178;89;21347;-94
2021/11/14 09:42:42;;;;;;;194.47;109.63;;;;;;;7.19;79.92;100975.39;1456362;89;21331;-95
2021/11/14 09:45:11;;;;;;;122.20;73.60;;;;;;;7.36;79.50;100972.35;1454441;89;21324;-96
2021/11/14 09:47:40;;;;;;;177.30;114.77;;;;;;;7.52;79.78;100974.70;1458909;89;21375;-95
2021/11/14 09:50:08;;;;;;;110.90;81.53;;;;;;;7.66;79.09;100968.41;1459500;89;21464;-93
2021/11/14 09:52:38;;;;;;;236.83;152.17;;;;;;;7.72;75.85;100962.67;1457196;89;21332;-94
2021/11/14 09:55:10;;;;;;;106.10;72.33;;;;;;;7.59;76.41;100962.73;1447891;89;21310;-95
2021/11/14 09:57:39;;;;;;;132.47;90.77;;;;;;;7.65;76.98;100961.44;1460924;89;21510;-93
2021/11/14 10:00:11;;;;;;;250.13;170.20;;;;;;;7.59;76.29;100965.38;1456090;89;21472;-95
2021/11/14 10:02:39;;;;;;;133.87;93.07;;;;;;;7.72;77.36;100969.73;1458734;89;21339;-94
2021/11/14 10:05:09;;;;;;;99.10;67.77;;;;;;;7.97;77.37;100966.92;1454994;87;22233;-96
2021/11/14 10:07:37;;;;;;;104.13;70.43;;;;;;;8.11;75.84;100962.74;1470585;89;21344;-94
2021/11/14 10:10:09;;;;;;;190.83;103.70;;;;;;;8.25;76.48;100954.22;1433905;89;21354;-95
2021/11/14 10:12:38;;;;;;;253.47;142.80;;;;;;;8.38;74.65;100957.59;1457436;89;21408;-95
2021/11/14 10:15:16;;;;;;;147.60;91.00;;;;;;;8.29;74.05;100955.68;1456875;89;21324;-96
2021/11/14 10:17:59;;;;;;;246.13;147.43;;;;;;;8.36;73.64;100959.02;1458165;89;22256;-94
2021/11/14 10:20:30;;;;;;;317.80;182.93;;;;;;;8.43;74.71;100958.11;1456539;89;21494;-94
2021/11/14 10:23:02;;;;;;;353.00;205.23;;;;;;;8.53;74.15;100952.45;1444192;89;21457;-94
2021/11/14 10:25:31;;;;;;;358.00;212.10;;;;;;;8.76;74.45;100953.73;1463348;89;21513;-94
2021/11/14 10:28:02;;;;;;;234.47;138.73;;;;;;;8.81;72.61;100947.12;1459428;89;21293;-93
2021/11/14 10:30:37;;;;;;;352.50;219.00;;;;;;;9.32;73.69;100943.02;1455563;89;21486;-92
2021/11/14 10:33:09;;;;;;;115.00;77.90;;;;;;;9.85;71.55;100944.76;1460917;89;21367;-92
2021/11/14 10:35:38;;;;;;;163.00;110.10;;;;;;;10.29;67.68;100933.02;1434013;91;21599;-92
2021/11/14 10:38:11;;;;;;;93.47;66.57;;;;;;;10.93;70.42;100938.90;1430640;91;22577;-90
2021/11/14 10:40:43;;;;;;;77.33;59.30;;;;;;;11.40;67.81;100938.59;1478586;91;22730;-91
2021/11/14 10:43:10;;;;;;;131.20;95.40;;;;;;;11.61;64.37;100941.06;1471235;91;21462;-91
2021/11/14 10:45:41;;;;;;;68.73;53.67;;;;;;;12.02;64.74;100935.56;1431317;91;21364;-91
2021/11/14 10:48:18;;;;;;;108.30;76.30;;;;;;;12.09;64.06;100935.34;1434915;91;21527;-91
2021/11/14 10:50:50;;;;;;;167.97;114.83;;;;;;;12.44;64.73;100937.28;1428681;91;21519;-92
2021/11/14 10:53:22;;;;;;;81.23;62.00;;;;;;;12.58;63.20;100935.47;1439484;91;21397;-91
2021/11/14 10:55:56;;;;;;;92.67;69.10;;;;;;;12.59;60.46;100930.48;1410484;92;21445;-92
2021/11/14 10:58:26;;;;;;;125.03;83.17;;;;;;;12.77;58.48;100933.67;1418898;91;21421;-92
2021/11/14 11:00:58;;;;;;;90.70;68.28;;;;;;;12.95;60.59;100929.23;1402721;92;21473;-92
2021/11/14 11:03:35;;;;;;;86.17;63.90;;;;;;;13.03;59.07;100927.98;1396004;92;21429;-90
2021/11/14 11:06:09;;;;;;;414.07;268.83;;;;;;;13.27;57.01;100923.41;1416709;92;21545;-90
2021/11/14 11:08:37;;;;;;;149.80;101.87;;;;;;;13.35;59.70;100922.66;1411073;91;21370;-90
2021/11/14 11:11:07;;;;;;;115.95;79.47;;;;;;;13.60;60.26;100916.18;1421096;92;21488;-90
2021/11/14 11:13:47;;;;;;;157.65;89.67;;;;;;;13.68;58.42;100916.23;1414414;92;21532;-90
2021/11/14 11:16:23;;;;;;;406.97;254.27;;;;;;;14.02;56.27;100915.45;1403944;92;21318;-94
2021/11/14 11:19:08;;;;;;;342.85;222.75;;;;;;;13.97;57.76;100913.26;1420630;92;22022;-91
2021/11/14 11:21:40;;;;;;;448.58;291.90;;;;;;;14.10;56.26;100908.34;1416267;92;21555;-91
2021/11/14 11:24:21;;;;;;;292.18;172.65;;;;;;;14.14;52.29;100908.86;1420874;92;21382;-91
2021/11/14 11:27:07;;;;;;;337.35;200.50;;;;;;;14.18;53.01;100908.39;1420303;92;21435;-90
2021/11/14 11:29:38;;;;;;;225.75;122.47;;;;;;;14.14;55.87;100902.20;1411934;92;21488;-91
2021/11/14 11:32:09;;;;;;;79.17;57.05;;;;;;;13.93;52.67;100907.42;1413025;92;21450;-91